createdAt,value
2018-12-05T00:00:15.592Z,4.03
2018-12-05T00:02:43.639Z,3.52
2018-12-05T00:05:11.696Z,3.70
2018-12-05T00:07:39.765Z,4.10
2018-12-05T00:10:08.120Z,4.13
2018-12-05T00:12:36.182Z,3.47
2018-12-05T00:15:04.829Z,3.93
2018-12-05T00:17:33.656Z,4.00
2018-12-05T00:20:01.926Z,4.50
2018-12-05T00:22:30.018Z,4.03
2018-12-05T00:24:58.123Z,4.30
2018-12-05T00:27:26.178Z,3.92
2018-12-05T00:29:54.370Z,4.43
2018-12-05T00:32:22.419Z,4.70
2018-12-05T00:34:50.486Z,4.73
2018-12-05T00:37:18.588Z,3.87
2018-12-05T00:39:48.107Z,3.33
2018-12-05T00:42:16.303Z,3.93
2018-12-05T00:44:44.368Z,3.60
2018-12-05T00:47:12.415Z,4.20
2018-12-05T00:49:40.479Z,3.60
2018-12-05T00:52:08.630Z,3.40
2018-12-05T00:54:36.688Z,3.80
2018-12-05T00:57:04.790Z,3.97
2018-12-05T00:59:32.846Z,3.33
2018-12-05T01:02:00.960Z,3.57
2018-12-05T01:04:29.079Z,3.95
2018-12-05T01:06:57.174Z,3.73
2018-12-05T01:09:25.234Z,3.73
2018-12-05T01:11:53.398Z,4.00
2018-12-05T01:14:21.486Z,3.67
2018-12-05T01:16:49.570Z,3.33
2018-12-05T01:19:17.836Z,3.37
2018-12-05T01:21:45.908Z,4.13
2018-12-05T01:24:13.959Z,3.27
2018-12-05T01:26:42.035Z,3.60
2018-12-05T01:29:10.141Z,3.50
2018-12-05T01:31:38.226Z,3.40
2018-12-05T01:34:06.347Z,3.33
2018-12-05T01:36:34.421Z,3.27
2018-12-05T01:39:04.426Z,3.37
2018-12-05T01:41:32.483Z,2.90
2018-12-05T01:44:00.539Z,3.17
2018-12-05T01:46:28.603Z,3.30
2018-12-05T01:48:56.703Z,3.23
2018-12-05T01:51:24.909Z,3.05
2018-12-05T01:53:53.008Z,3.50
2018-12-05T01:56:21.345Z,3.83
2018-12-05T01:58:50.478Z,3.23
2018-12-05T02:01:18.531Z,3.57
2018-12-05T02:03:46.613Z,3.33
2018-12-05T02:06:15.263Z,3.30
2018-12-05T02:08:43.439Z,2.90
2018-12-05T02:11:11.560Z,2.93
2018-12-05T02:13:39.701Z,3.00
2018-12-05T02:16:07.903Z,2.97
2018-12-05T02:18:36.030Z,2.77
2018-12-05T02:21:04.259Z,3.10
2018-12-05T02:23:32.343Z,2.72
2018-12-05T02:26:00.410Z,2.55
2018-12-05T02:28:29.465Z,3.15
2018-12-05T02:30:57.555Z,3.07
2018-12-05T02:33:25.643Z,2.77
2018-12-05T02:35:53.697Z,2.60
2018-12-05T02:38:21.751Z,3.07
2018-12-05T02:40:49.834Z,2.87
2018-12-05T02:43:17.915Z,2.80
2018-12-05T02:45:46.008Z,2.73
2018-12-05T02:48:14.137Z,2.30
2018-12-05T02:50:42.192Z,2.42
2018-12-05T02:53:10.367Z,2.55
2018-12-05T02:55:38.448Z,2.70
2018-12-05T02:58:06.576Z,2.17
2018-12-05T03:00:34.619Z,2.97
2018-12-05T03:03:03.020Z,2.58
2018-12-05T03:05:31.099Z,2.50
2018-12-05T03:07:59.194Z,3.00
2018-12-05T03:10:27.282Z,2.70
2018-12-05T03:12:55.373Z,3.07
2018-12-05T03:15:23.511Z,3.17
2018-12-05T03:17:52.512Z,3.50
2018-12-05T03:20:20.567Z,3.10
2018-12-05T03:22:48.666Z,3.87
2018-12-05T03:25:16.699Z,3.20
2018-12-05T03:27:44.849Z,3.90
2018-12-05T03:30:13.010Z,3.40
2018-12-05T03:32:41.186Z,3.30
2018-12-05T03:35:10.004Z,3.17
2018-12-05T03:37:38.151Z,3.13
2018-12-05T03:40:06.679Z,3.72
2018-12-05T03:42:34.894Z,2.97
2018-12-05T03:45:03.028Z,3.93
2018-12-05T03:47:31.101Z,4.13
2018-12-05T03:50:02.001Z,4.27
2018-12-05T03:52:30.339Z,3.65
2018-12-05T03:54:58.497Z,4.10
2018-12-05T03:57:26.633Z,3.37
2018-12-05T03:59:54.803Z,4.30
2018-12-05T04:02:22.855Z,4.83
2018-12-05T04:04:51.018Z,3.72
2018-12-05T04:07:19.152Z,4.53
2018-12-05T04:09:47.352Z,4.40
2018-12-05T04:12:15.404Z,4.17
2018-12-05T04:14:43.539Z,3.47
2018-12-05T04:17:11.646Z,3.60
2018-12-05T04:19:39.831Z,4.30
2018-12-05T04:22:10.259Z,4.40
2018-12-05T04:24:38.379Z,3.80
2018-12-05T04:27:06.452Z,4.17
2018-12-05T04:29:34.544Z,4.57
2018-12-05T04:32:02.615Z,4.63
2018-12-05T04:34:30.660Z,4.40
2018-12-05T04:36:58.703Z,4.53
2018-12-05T04:39:26.856Z,5.00
2018-12-05T04:41:55.008Z,4.17
2018-12-05T04:44:23.064Z,4.37
2018-12-05T04:46:51.660Z,5.10
2018-12-05T04:49:19.807Z,4.23
2018-12-05T04:51:48.002Z,4.63
2018-12-05T04:54:16.219Z,4.20
2018-12-05T04:56:44.266Z,4.67
2018-12-05T04:59:12.332Z,4.60
2018-12-05T05:01:40.502Z,4.60
2018-12-05T05:04:08.572Z,4.70
2018-12-05T05:06:41.687Z,4.30
2018-12-05T05:09:06.973Z,3.63
2018-12-05T05:11:35.054Z,3.77
2018-12-05T05:14:03.157Z,4.27
2018-12-05T05:16:31.206Z,4.50
2018-12-05T05:18:59.335Z,4.10
2018-12-05T05:21:27.527Z,4.27
2018-12-05T05:23:56.755Z,4.00
2018-12-05T05:26:24.819Z,4.07
2018-12-05T05:28:52.895Z,4.37
2018-12-05T05:31:20.956Z,4.10
2018-12-05T05:33:49.027Z,4.03
2018-12-05T05:36:17.111Z,4.62
2018-12-05T05:38:45.250Z,4.13
2018-12-05T05:41:13.323Z,4.53
2018-12-05T05:43:41.554Z,4.47
2018-12-05T05:46:09.679Z,4.20
2018-12-05T05:48:37.736Z,4.47
2018-12-05T05:51:05.829Z,4.08
2018-12-05T05:53:33.976Z,4.07
2018-12-05T05:56:02.028Z,4.03
2018-12-05T05:58:30.089Z,3.40
2018-12-05T06:00:58.166Z,4.00
2018-12-05T06:03:26.223Z,4.20
2018-12-05T06:05:54.323Z,4.27
2018-12-05T06:08:22.398Z,4.40
2018-12-05T06:10:50.487Z,4.40
2018-12-05T06:13:18.552Z,3.90
2018-12-05T06:15:46.642Z,4.53
2018-12-05T06:18:14.719Z,3.98
2018-12-05T06:20:42.807Z,4.30
2018-12-05T06:23:10.872Z,4.40
2018-12-05T06:25:39.971Z,3.98
2018-12-05T06:28:08.032Z,4.53
2018-12-05T06:30:36.130Z,4.50
2018-12-05T06:33:04.221Z,4.47
2018-12-05T06:35:32.283Z,4.87
2018-12-05T06:38:00.354Z,4.40
2018-12-05T06:40:28.553Z,5.28
2018-12-05T06:46:00.058Z,4.83
2018-12-05T06:48:28.218Z,5.03
2018-12-05T06:50:56.303Z,4.80
2018-12-05T06:56:27.228Z,5.07
2018-12-05T06:58:55.283Z,5.30
2018-12-05T07:01:23.343Z,5.40
2018-12-05T07:03:51.471Z,4.92
2018-12-05T07:06:19.607Z,5.47
2018-12-05T07:08:47.713Z,6.20
2018-12-05T07:11:15.776Z,5.62
2018-12-05T07:13:43.831Z,6.23
2018-12-05T07:16:11.957Z,5.60
2018-12-05T07:18:40.008Z,5.20
2018-12-05T07:21:08.066Z,5.72
2018-12-05T07:23:36.156Z,6.03
2018-12-05T07:26:04.375Z,6.13
2018-12-05T07:28:32.440Z,6.53
2018-12-05T07:31:00.514Z,6.30
2018-12-05T07:33:29.406Z,6.40
2018-12-05T07:35:57.491Z,6.53
2018-12-05T07:38:25.663Z,7.30
2018-12-05T07:40:53.782Z,6.93
2018-12-05T07:43:21.858Z,7.07
2018-12-05T07:45:49.939Z,7.43
2018-12-05T07:48:18.027Z,7.07
2018-12-05T07:50:46.147Z,8.30
2018-12-05T07:53:14.235Z,11.40
2018-12-05T07:55:42.343Z,12.70
2018-12-05T07:58:10.479Z,12.07
2018-12-05T08:00:38.557Z,11.50
2018-12-05T08:03:06.734Z,8.57
2018-12-05T08:05:34.810Z,7.87
2018-12-05T08:08:02.872Z,7.87
2018-12-05T08:10:30.931Z,7.70
2018-12-05T08:12:59.116Z,7.87
2018-12-05T08:15:27.364Z,8.45
2018-12-05T08:17:55.440Z,7.83
2018-12-05T08:20:23.508Z,8.60
2018-12-05T08:22:51.575Z,9.30
2018-12-05T08:25:19.661Z,12.90
2018-12-05T08:27:47.804Z,11.50
2018-12-05T08:30:15.974Z,10.63
2018-12-05T08:32:44.063Z,9.53
2018-12-05T08:35:12.191Z,8.20
2018-12-05T08:37:40.255Z,8.43
2018-12-05T08:40:08.374Z,7.87
2018-12-05T08:42:36.458Z,8.77
2018-12-05T08:45:04.595Z,8.63
2018-12-05T08:47:33.908Z,9.10
2018-12-05T08:50:02.141Z,9.70
2018-12-05T08:52:30.343Z,10.87
2018-12-05T08:54:58.401Z,10.93
2018-12-05T08:57:26.475Z,11.10
2018-12-05T08:59:54.565Z,10.30
2018-12-05T09:02:23.134Z,9.77
2018-12-05T09:04:51.291Z,9.97
2018-12-05T09:07:19.451Z,10.57
2018-12-05T09:09:47.521Z,12.33
2018-12-05T09:12:15.622Z,10.33
2018-12-05T09:14:43.723Z,8.98
2018-12-05T09:17:11.831Z,10.73
2018-12-05T09:19:40.028Z,9.78
2018-12-05T09:22:08.151Z,9.90
2018-12-05T09:24:36.219Z,10.13
2018-12-05T09:27:04.347Z,10.80
2018-12-05T09:29:32.418Z,11.60
2018-12-05T09:32:00.501Z,12.27
2018-12-05T09:34:28.651Z,11.60
2018-12-05T09:36:56.806Z,11.40
2018-12-05T09:39:24.916Z,11.20
2018-12-05T09:41:53.026Z,13.00
2018-12-05T09:44:21.231Z,13.50
2018-12-05T09:46:49.335Z,13.80
2018-12-05T09:49:17.405Z,13.63
2018-12-05T09:51:45.476Z,14.00
2018-12-05T09:54:13.575Z,13.43
2018-12-05T09:56:41.679Z,11.73
2018-12-05T09:59:09.740Z,12.63
2018-12-05T10:01:37.861Z,13.10
2018-12-05T10:04:05.964Z,13.33
2018-12-05T10:06:34.062Z,13.30
2018-12-05T10:09:02.377Z,10.13
2018-12-05T10:11:30.450Z,10.93
2018-12-05T10:13:58.605Z,12.50
2018-12-05T10:16:27.007Z,10.90
2018-12-05T10:18:55.070Z,12.43
2018-12-05T10:21:23.173Z,12.00
2018-12-05T10:23:51.235Z,10.72
2018-12-05T10:26:19.439Z,9.63
2018-12-05T10:28:47.623Z,8.87
2018-12-05T10:31:15.683Z,9.57
2018-12-05T10:33:43.747Z,9.47
2018-12-05T10:36:11.817Z,9.33
2018-12-05T10:38:39.899Z,8.80
2018-12-05T10:41:07.954Z,10.53
2018-12-05T10:43:36.167Z,10.90
2018-12-05T10:46:04.321Z,11.83
2018-12-05T10:48:32.432Z,9.85
2018-12-05T10:51:00.546Z,9.40
2018-12-05T10:53:29.759Z,9.28
2018-12-05T10:55:58.087Z,9.43
2018-12-05T10:58:26.157Z,10.00
2018-12-05T11:00:59.904Z,9.60
2018-12-05T11:03:33.519Z,9.20
2018-12-05T11:06:07.406Z,9.60
2018-12-05T11:08:41.139Z,9.10
2018-12-05T11:11:14.692Z,11.43
2018-12-05T11:13:48.811Z,8.90
2018-12-05T11:16:22.401Z,10.10
2018-12-05T11:18:55.992Z,9.35
2018-12-05T11:21:29.702Z,9.23
2018-12-05T11:24:00.510Z,8.40
2018-12-05T11:26:29.568Z,7.70
2018-12-05T11:28:57.659Z,6.77
2018-12-05T11:31:25.763Z,7.80
2018-12-05T11:33:53.847Z,7.93
2018-12-05T11:36:21.956Z,7.97
2018-12-05T11:38:50.067Z,7.87
2018-12-05T11:41:18.163Z,7.97
2018-12-05T11:43:46.311Z,7.40
2018-12-05T11:46:14.469Z,7.30
2018-12-05T11:48:42.544Z,7.63
2018-12-05T11:51:10.660Z,7.80
2018-12-05T11:53:38.732Z,7.33
2018-12-05T11:56:06.822Z,6.77
2018-12-05T11:58:35.113Z,6.70
2018-12-05T12:01:03.162Z,7.27
2018-12-05T12:03:31.272Z,7.63
2018-12-05T12:05:59.374Z,6.73
2018-12-05T12:08:27.442Z,6.47
2018-12-05T12:10:55.647Z,6.50
2018-12-05T12:13:23.827Z,6.60
2018-12-05T12:15:51.951Z,5.43
2018-12-05T12:18:20.064Z,7.50
2018-12-05T12:20:48.218Z,6.83
2018-12-05T12:23:16.289Z,6.97
2018-12-05T12:25:44.385Z,6.87
2018-12-05T12:28:12.539Z,7.10
2018-12-05T12:30:41.762Z,7.42
2018-12-05T12:33:09.841Z,7.67
2018-12-05T12:35:37.990Z,6.53
2018-12-05T12:38:06.170Z,6.70
2018-12-05T12:40:34.270Z,6.53
2018-12-05T12:43:02.411Z,5.97
2018-12-05T12:45:30.514Z,6.57
2018-12-05T12:47:58.621Z,7.43
2018-12-05T12:50:26.691Z,6.55
2018-12-05T12:52:54.784Z,6.27
2018-12-05T12:55:22.860Z,5.93
2018-12-05T12:57:50.922Z,6.60
2018-12-05T13:00:18.986Z,5.50
2018-12-05T13:02:47.130Z,6.07
2018-12-05T13:05:15.294Z,5.97
2018-12-05T13:07:43.383Z,5.35
2018-12-05T13:10:11.483Z,5.75
2018-12-05T13:12:39.674Z,6.07
2018-12-05T13:15:07.835Z,5.50
2018-12-05T13:17:36.008Z,5.70
2018-12-05T13:20:04.983Z,6.07
2018-12-05T13:22:33.091Z,6.07
2018-12-05T13:25:01.194Z,5.70
2018-12-05T13:27:29.262Z,5.50
2018-12-05T13:29:57.330Z,5.33
2018-12-05T13:32:25.523Z,4.80
2018-12-05T13:34:53.594Z,5.03
2018-12-05T13:37:21.691Z,5.03
2018-12-05T13:39:49.792Z,5.47
2018-12-05T13:42:17.854Z,4.90
2018-12-05T13:44:45.957Z,5.17
2018-12-05T13:47:14.160Z,6.33
2018-12-05T13:49:42.338Z,6.97
2018-12-05T13:52:10.478Z,6.77
2018-12-05T13:54:38.722Z,6.67
2018-12-05T13:57:06.759Z,6.77
2018-12-05T13:59:34.872Z,6.25
2018-12-05T14:02:03.049Z,6.77
2018-12-05T14:04:31.156Z,6.55
2018-12-05T14:06:59.210Z,6.20
2018-12-05T14:09:27.286Z,6.50
2018-12-05T14:11:55.628Z,6.03
2018-12-05T14:14:23.701Z,6.28
2018-12-05T14:16:51.843Z,6.22
2018-12-05T14:19:19.911Z,5.42
2018-12-05T14:21:48.545Z,5.63
2018-12-05T14:24:19.829Z,5.47
2018-12-05T14:26:52.005Z,5.50
2018-12-05T14:29:21.453Z,5.33
2018-12-05T14:31:51.485Z,6.27
2018-12-05T14:34:21.008Z,5.50
2018-12-05T14:36:51.021Z,6.22
2018-12-05T14:52:53.303Z,7.07
2018-12-05T14:55:34.693Z,7.22
2018-12-05T15:18:00.073Z,6.77
2018-12-05T15:23:44.166Z,6.70
2018-12-05T15:26:12.248Z,7.80
2018-12-05T15:28:40.363Z,7.97
2018-12-05T15:31:08.553Z,8.43
2018-12-05T15:33:36.719Z,6.80
2018-12-05T15:36:04.838Z,5.97
2018-12-05T15:38:32.916Z,6.73
2018-12-05T15:41:01.321Z,9.10
2018-12-05T15:43:29.387Z,9.27
2018-12-05T15:45:57.580Z,6.83
2018-12-05T15:48:25.644Z,6.27
2018-12-05T15:50:53.796Z,6.00
2018-12-05T15:53:21.850Z,5.70
2018-12-05T15:55:49.976Z,5.63
2018-12-05T15:58:18.032Z,5.78
2018-12-05T16:00:46.101Z,5.73
2018-12-05T16:03:14.227Z,5.20
2018-12-05T16:05:42.291Z,5.70
2018-12-05T16:08:10.360Z,5.27
2018-12-05T16:10:38.446Z,5.90
2018-12-05T16:13:06.519Z,7.83
2018-12-05T16:15:34.702Z,8.60
2018-12-05T16:18:02.828Z,6.30
2018-12-05T16:20:30.897Z,5.57
2018-12-05T16:22:58.980Z,6.37
2018-12-05T16:25:27.058Z,6.13
2018-12-05T16:27:55.117Z,6.77
2018-12-05T16:30:23.213Z,6.10
2018-12-05T16:32:51.382Z,5.33
2018-12-05T16:35:19.532Z,22.67
2018-12-05T16:37:47.591Z,6.20
2018-12-05T16:40:15.651Z,5.40
2018-12-05T16:42:43.820Z,8.07
2018-12-05T16:45:11.919Z,6.00
2018-12-05T16:47:39.977Z,5.80
2018-12-05T16:50:08.115Z,5.57
2018-12-05T16:52:36.179Z,6.30
2018-12-05T16:55:04.666Z,6.53
2018-12-05T16:57:32.811Z,6.97
2018-12-05T17:00:00.940Z,6.08
2018-12-05T17:02:29.093Z,6.37
2018-12-05T17:04:57.287Z,6.62
2018-12-05T17:07:25.494Z,6.50
2018-12-05T17:09:53.569Z,6.40
2018-12-05T17:12:21.650Z,6.70
2018-12-05T17:14:49.722Z,6.33
2018-12-05T17:17:17.877Z,5.53
2018-12-05T17:19:46.309Z,6.30
2018-12-05T17:22:14.459Z,5.90
2018-12-05T17:24:42.554Z,6.57
2018-12-05T17:27:10.735Z,6.40
2018-12-05T17:29:38.861Z,6.07
2018-12-05T17:32:07.035Z,6.77
2018-12-05T17:34:35.123Z,6.37
2018-12-05T17:37:03.230Z,6.90
2018-12-05T17:39:31.292Z,6.90
2018-12-05T17:41:59.350Z,6.37
2018-12-05T17:44:27.431Z,7.23
2018-12-05T17:46:55.534Z,7.30
2018-12-05T17:49:23.602Z,7.97
2018-12-05T17:51:51.755Z,8.03
2018-12-05T17:54:19.920Z,7.57
2018-12-05T17:56:48.069Z,6.90
2018-12-05T17:59:16.216Z,7.33
2018-12-05T18:01:44.482Z,7.33
2018-12-05T18:04:12.608Z,7.13
2018-12-05T18:06:40.751Z,8.05
2018-12-05T18:09:09.006Z,8.07
2018-12-05T18:11:37.079Z,8.23
2018-12-05T18:14:05.290Z,7.50
2018-12-05T18:16:33.442Z,7.63
2018-12-05T18:19:01.505Z,7.33
2018-12-05T18:21:29.651Z,7.80
2018-12-05T18:23:57.749Z,7.72
2018-12-05T18:26:26.060Z,7.05
2018-12-05T18:28:54.156Z,7.67
2018-12-05T18:31:22.269Z,8.07
2018-12-05T18:33:50.443Z,7.40
2018-12-05T18:36:18.639Z,7.70
2018-12-05T18:38:46.767Z,7.47
2018-12-05T18:41:14.991Z,7.10
2018-12-05T18:43:43.079Z,7.60
2018-12-05T18:46:11.262Z,6.57
2018-12-05T18:48:39.431Z,7.33
2018-12-05T18:51:07.519Z,6.30
2018-12-05T18:53:35.585Z,7.20
2018-12-05T18:56:03.753Z,6.27
2018-12-05T18:58:31.841Z,5.63
2018-12-05T19:01:00.067Z,6.13
2018-12-05T19:03:28.199Z,6.30
2018-12-05T19:05:56.295Z,5.77
2018-12-05T19:08:24.403Z,5.90
2018-12-05T19:10:52.467Z,5.70
2018-12-05T19:13:21.593Z,5.70
2018-12-05T19:15:49.699Z,5.97
2018-12-05T19:18:17.769Z,5.03
2018-12-05T19:20:45.987Z,5.97
2018-12-05T19:23:14.054Z,5.83
2018-12-05T19:25:42.198Z,4.70
2018-12-05T19:28:10.253Z,5.10
2018-12-05T19:30:38.338Z,5.17
2018-12-05T19:33:06.402Z,6.60
2018-12-05T19:35:34.464Z,6.60
2018-12-05T19:38:02.544Z,6.67
2018-12-05T19:40:30.644Z,6.67
2018-12-05T19:42:58.764Z,7.65
2018-12-05T19:45:26.897Z,9.18
2018-12-05T19:47:54.962Z,8.20
2018-12-05T19:50:23.799Z,6.47
2018-12-05T19:52:51.871Z,5.90
2018-12-05T19:55:19.975Z,5.63
2018-12-05T19:57:48.115Z,5.53
2018-12-05T20:00:16.179Z,5.90
2018-12-05T20:02:44.278Z,5.37
2018-12-05T20:05:12.378Z,5.93
2018-12-05T20:07:40.449Z,5.77
2018-12-05T20:10:08.672Z,4.87
2018-12-05T20:12:36.784Z,4.93
2018-12-05T20:15:05.343Z,5.27
2018-12-05T20:17:33.434Z,5.73
2018-12-05T20:20:02.747Z,6.23
2018-12-05T20:22:30.867Z,6.10
2018-12-05T20:24:58.948Z,5.35
2018-12-05T20:27:27.048Z,4.93
2018-12-05T20:29:55.113Z,5.40
2018-12-05T20:32:23.178Z,5.53
2018-12-05T20:34:51.309Z,5.37
2018-12-05T20:37:19.370Z,5.37
2018-12-05T20:39:47.429Z,5.40
2018-12-05T20:42:15.541Z,5.70
2018-12-05T20:44:43.612Z,5.10
2018-12-05T20:47:11.712Z,5.00
2018-12-05T20:49:39.783Z,5.10
2018-12-05T20:52:07.912Z,4.47
2018-12-05T20:54:35.991Z,4.47
2018-12-05T20:57:05.303Z,4.90
2018-12-05T20:59:33.409Z,4.77
2018-12-05T21:02:01.472Z,4.70
2018-12-05T21:04:29.614Z,4.27
2018-12-05T21:07:01.705Z,5.00
2018-12-05T21:09:30.226Z,4.97
2018-12-05T21:11:58.544Z,5.77
2018-12-05T21:14:26.805Z,5.47
2018-12-05T21:16:54.961Z,5.70
2018-12-05T21:19:23.176Z,6.13
2018-12-05T21:21:51.562Z,5.83
2018-12-05T21:24:19.796Z,5.15
2018-12-05T21:26:47.889Z,6.00
2018-12-05T21:29:17.021Z,6.00
2018-12-05T21:31:47.369Z,6.10
2018-12-05T21:34:15.472Z,5.40
2018-12-05T21:36:43.565Z,5.33
2018-12-05T21:39:12.462Z,5.93
2018-12-05T21:41:40.680Z,5.77
2018-12-05T21:44:08.809Z,5.20
2018-12-05T21:46:37.868Z,4.20
2018-12-05T21:49:06.102Z,5.17
2018-12-05T21:51:34.356Z,4.62
2018-12-05T21:54:02.561Z,4.23
2018-12-05T21:56:30.681Z,4.50
2018-12-05T21:58:58.739Z,4.60
2018-12-05T22:01:28.053Z,4.40
2018-12-05T22:03:56.166Z,3.90
2018-12-05T22:06:24.227Z,4.73
2018-12-05T22:08:52.395Z,4.00
2018-12-05T22:11:20.587Z,3.47
2018-12-05T22:13:48.690Z,3.40
2018-12-05T22:16:16.840Z,3.40
2018-12-05T22:18:44.899Z,3.13
2018-12-05T22:21:12.979Z,3.10
2018-12-05T22:23:41.072Z,3.47
2018-12-05T22:26:09.134Z,3.30
2018-12-05T22:28:38.008Z,2.83
2018-12-05T22:31:06.883Z,3.17
2018-12-05T22:33:35.024Z,3.00
2018-12-05T22:36:03.138Z,2.97
2018-12-05T22:38:31.269Z,2.90
2018-12-05T22:41:00.219Z,2.93
2018-12-05T22:43:28.372Z,2.87
2018-12-05T22:45:57.676Z,2.65
2018-12-05T22:48:25.748Z,2.50
2018-12-05T22:50:55.201Z,2.87
2018-12-05T22:53:23.991Z,2.90
2018-12-05T22:55:52.931Z,2.90
2018-12-05T22:58:21.019Z,2.87
2018-12-05T23:00:52.523Z,2.50
2018-12-05T23:03:20.631Z,2.80
2018-12-05T23:05:48.703Z,2.93
2018-12-05T23:08:16.843Z,2.57
2018-12-05T23:10:45.000Z,2.37
2018-12-05T23:13:19.069Z,2.93
2018-12-05T23:15:47.260Z,2.93
2018-12-05T23:18:15.406Z,3.17
2018-12-05T23:20:43.541Z,3.03
2018-12-05T23:23:18.809Z,2.83
2018-12-05T23:25:46.964Z,2.77
2018-12-05T23:28:15.053Z,3.13
2018-12-05T23:30:43.983Z,3.30
2018-12-05T23:33:12.089Z,3.37
2018-12-05T23:35:40.175Z,3.27
2018-12-05T23:38:08.295Z,3.30
2018-12-05T23:40:36.403Z,3.17
2018-12-05T23:43:04.569Z,3.50
2018-12-05T23:45:32.704Z,3.57
2018-12-05T23:48:01.891Z,3.87
2018-12-05T23:50:30.031Z,4.13
2018-12-05T23:53:00.655Z,3.73
2018-12-05T23:55:28.747Z,4.27
2018-12-05T23:57:56.930Z,4.60
